Decoded Metar for KAMW (AMES in IA, USA) (IATA:AMW) | Meteo·Mobile Aviation Weather
aviador You're here:

KAMW Decoded Metar

AMES in IA, USA
Report Time2019-04-20 09:53:00
UTC Time2019-04-20 10:14:48
Flight Rules vfr VFR
WindCalm
Visibility9999 m
Phenomena:N/A
Clouds:N/A
Expected CloudBase > 1,200 ft AGL from Temp-Dew spread
CeilingNone
Temp02°C (ISA -11)
Dew Point-1°C (81% RH)
AAT-0.1°C
QNH1014 hPa
Density Alt-394 ft
Elevation915 ft
Report Wrong Elevation
Raw Report
KAMW 200953Z AUTO 00000KT 10SM CLR 02/M01 A2993 RMK AO2 SLP136
T00171011=

Extra information for KAMW:More info

Metar Taf Metar & Taf Last 4 Metars F.Rules Stats Wind Profile Meteogram Temp Stats Airport Information Weather charts Add Link Nearby VenuesMetar ALERT Operation Metar Decoded Social comments

AIRNAV info for KAMW